sensor_id;sensor_type;location;lat;lon;timestamp;P1;durP1;ratioP1;P2;durP2;ratioP2
65463;SDS011;52063;45.110;9.870;2022-11-30T00:00:58;9.32;;;7.60;;
65463;SDS011;52063;45.110;9.870;2022-11-30T00:03:24;8.20;;;7.40;;
65463;SDS011;52063;45.110;9.870;2022-11-30T00:05:49;8.50;;;7.47;;
65463;SDS011;52063;45.110;9.870;2022-11-30T00:08:15;8.00;;;7.20;;
65463;SDS011;52063;45.110;9.870;2022-11-30T00:10:41;8.33;;;7.43;;
65463;SDS011;52063;45.110;9.870;2022-11-30T00:13:07;8.25;;;7.32;;
65463;SDS011;52063;45.110;9.870;2022-11-30T00:15:34;9.20;;;7.07;;
65463;SDS011;52063;45.110;9.870;2022-11-30T00:18:00;9.05;;;7.05;;
65463;SDS011;52063;45.110;9.870;2022-11-30T00:20:25;8.38;;;7.47;;
65463;SDS011;52063;45.110;9.870;2022-11-30T00:22:53;10.13;;;7.27;;
65463;SDS011;52063;45.110;9.870;2022-11-30T00:25:20;10.23;;;7.45;;
65463;SDS011;52063;45.110;9.870;2022-11-30T00:27:45;8.30;;;6.83;;
65463;SDS011;52063;45.110;9.870;2022-11-30T00:30:11;9.70;;;7.30;;
65463;SDS011;52063;45.110;9.870;2022-11-30T00:32:37;9.57;;;7.43;;
65463;SDS011;52063;45.110;9.870;2022-11-30T00:35:02;7.95;;;7.15;;
65463;SDS011;52063;45.110;9.870;2022-11-30T00:37:29;9.95;;;7.38;;
65463;SDS011;52063;45.110;9.870;2022-11-30T00:39:54;7.97;;;7.07;;
65463;SDS011;52063;45.110;9.870;2022-11-30T00:42:20;8.73;;;7.77;;
65463;SDS011;52063;45.110;9.870;2022-11-30T00:44:45;8.33;;;7.43;;
65463;SDS011;52063;45.110;9.870;2022-11-30T00:47:11;7.80;;;6.70;;
65463;SDS011;52063;45.110;9.870;2022-11-30T00:49:36;8.27;;;7.13;;
65463;SDS011;52063;45.110;9.870;2022-11-30T00:52:02;8.57;;;7.50;;
65463;SDS011;52063;45.110;9.870;2022-11-30T00:54:28;8.80;;;6.80;;
65463;SDS011;52063;45.110;9.870;2022-11-30T00:56:53;8.50;;;6.82;;
65463;SDS011;52063;45.110;9.870;2022-11-30T00:59:19;7.80;;;7.03;;
65463;SDS011;52063;45.110;9.870;2022-11-30T01:01:44;7.60;;;6.80;;
65463;SDS011;52063;45.110;9.870;2022-11-30T01:04:10;7.63;;;6.85;;
65463;SDS011;52063;45.110;9.870;2022-11-30T01:06:36;8.23;;;7.03;;
65463;SDS011;52063;45.110;9.870;2022-11-30T01:09:02;8.20;;;6.85;;
65463;SDS011;52063;45.110;9.870;2022-11-30T01:11:28;7.47;;;6.50;;
65463;SDS011;52063;45.110;9.870;2022-11-30T01:13:54;8.75;;;6.85;;
65463;SDS011;52063;45.110;9.870;2022-11-30T01:16:23;8.30;;;6.47;;
65463;SDS011;52063;45.110;9.870;2022-11-30T01:18:50;6.78;;;6.07;;
65463;SDS011;52063;45.110;9.870;2022-11-30T01:21:17;6.93;;;6.23;;
65463;SDS011;52063;45.110;9.870;2022-11-30T01:23:44;6.80;;;6.20;;
65463;SDS011;52063;45.110;9.870;2022-11-30T01:26:09;6.68;;;5.97;;
65463;SDS011;52063;45.110;9.870;2022-11-30T01:28:35;10.00;;;6.10;;
65463;SDS011;52063;45.110;9.870;2022-11-30T01:31:05;8.70;;;6.15;;
65463;SDS011;52063;45.110;9.870;2022-11-30T01:33:32;7.57;;;6.22;;
65463;SDS011;52063;45.110;9.870;2022-11-30T01:35:58;10.17;;;6.50;;
65463;SDS011;52063;45.110;9.870;2022-11-30T01:38:46;7.93;;;5.93;;
65463;SDS011;52063;45.110;9.870;2022-11-30T01:41:16;7.53;;;5.90;;
65463;SDS011;52063;45.110;9.870;2022-11-30T01:46:44;6.53;;;5.90;;
65463;SDS011;52063;45.110;9.870;2022-11-30T01:49:29;6.72;;;5.90;;
65463;SDS011;52063;45.110;9.870;2022-11-30T01:52:02;7.10;;;5.82;;
65463;SDS011;52063;45.110;9.870;2022-11-30T01:54:40;6.35;;;5.55;;
65463;SDS011;52063;45.110;9.870;2022-11-30T01:57:14;6.30;;;5.70;;
65463;SDS011;52063;45.110;9.870;2022-11-30T01:59:45;7.17;;;6.10;;
65463;SDS011;52063;45.110;9.870;2022-11-30T02:02:12;8.90;;;6.00;;
65463;SDS011;52063;45.110;9.870;2022-11-30T02:04:38;8.03;;;6.00;;
65463;SDS011;52063;45.110;9.870;2022-11-30T02:07:04;7.80;;;5.83;;
65463;SDS011;52063;45.110;9.870;2022-11-30T02:09:33;6.80;;;5.63;;
65463;SDS011;52063;45.110;9.870;2022-11-30T02:12:02;10.88;;;5.93;;
65463;SDS011;52063;45.110;9.870;2022-11-30T02:14:34;5.90;;;5.30;;
65463;SDS011;52063;45.110;9.870;2022-11-30T02:17:16;6.65;;;5.55;;
65463;SDS011;52063;45.110;9.870;2022-11-30T02:25:09;8.55;;;5.43;;
65463;SDS011;52063;45.110;9.870;2022-11-30T02:27:52;6.77;;;5.60;;
65463;SDS011;52063;45.110;9.870;2022-11-30T02:30:23;6.47;;;5.72;;
65463;SDS011;52063;45.110;9.870;2022-11-30T02:32:50;6.88;;;5.45;;
65463;SDS011;52063;45.110;9.870;2022-11-30T02:35:20;8.43;;;5.90;;
65463;SDS011;52063;45.110;9.870;2022-11-30T02:37:49;6.13;;;5.38;;
65463;SDS011;52063;45.110;9.870;2022-11-30T02:40:16;6.70;;;5.27;;
65463;SDS011;52063;45.110;9.870;2022-11-30T02:42:44;6.22;;;5.25;;
65463;SDS011;52063;45.110;9.870;2022-11-30T02:45:10;7.72;;;5.53;;
65463;SDS011;52063;45.110;9.870;2022-11-30T02:47:40;7.30;;;5.18;;
65463;SDS011;52063;45.110;9.870;2022-11-30T02:52:31;5.90;;;5.28;;
65463;SDS011;52063;45.110;9.870;2022-11-30T02:54:58;6.28;;;5.60;;
65463;SDS011;52063;45.110;9.870;2022-11-30T02:57:32;6.85;;;4.93;;
65463;SDS011;52063;45.110;9.870;2022-11-30T02:59:57;6.30;;;5.70;;
65463;SDS011;52063;45.110;9.870;2022-11-30T03:02:23;5.70;;;5.10;;
65463;SDS011;52063;45.110;9.870;2022-11-30T03:04:48;5.40;;;4.90;;
65463;SDS011;52063;45.110;9.870;2022-11-30T03:07:14;6.72;;;4.85;;
65463;SDS011;52063;45.110;9.870;2022-11-30T03:09:40;5.77;;;5.27;;
65463;SDS011;52063;45.110;9.870;2022-11-30T03:12:05;6.23;;;4.93;;
65463;SDS011;52063;45.110;9.870;2022-11-30T03:14:31;5.45;;;4.90;;
65463;SDS011;52063;45.110;9.870;2022-11-30T03:16:56;6.07;;;5.30;;
65463;SDS011;52063;45.110;9.870;2022-11-30T03:19:21;6.40;;;5.27;;
65463;SDS011;52063;45.110;9.870;2022-11-30T03:21:47;5.40;;;4.57;;
65463;SDS011;52063;45.110;9.870;2022-11-30T03:24:12;5.63;;;5.05;;
65463;SDS011;52063;45.110;9.870;2022-11-30T03:26:38;7.43;;;4.90;;
65463;SDS011;52063;45.110;9.870;2022-11-30T03:29:03;6.53;;;5.50;;
65463;SDS011;52063;45.110;9.870;2022-11-30T03:31:29;5.95;;;5.32;;
65463;SDS011;52063;45.110;9.870;2022-11-30T03:33:55;5.77;;;4.80;;
65463;SDS011;52063;45.110;9.870;2022-11-30T03:36:20;5.70;;;5.15;;
65463;SDS011;52063;45.110;9.870;2022-11-30T03:38:46;6.67;;;5.17;;
65463;SDS011;52063;45.110;9.870;2022-11-30T03:41:13;5.72;;;5.18;;
65463;SDS011;52063;45.110;9.870;2022-11-30T03:43:43;5.27;;;4.77;;
65463;SDS011;52063;45.110;9.870;2022-11-30T03:46:09;5.60;;;5.10;;
65463;SDS011;52063;45.110;9.870;2022-11-30T03:48:35;5.10;;;4.60;;
65463;SDS011;52063;45.110;9.870;2022-11-30T03:51:01;4.93;;;4.53;;
65463;SDS011;52063;45.110;9.870;2022-11-30T03:53:28;4.97;;;4.20;;
65463;SDS011;52063;45.110;9.870;2022-11-30T03:55:54;4.87;;;4.07;;
65463;SDS011;52063;45.110;9.870;2022-11-30T03:58:24;5.68;;;4.63;;
65463;SDS011;52063;45.110;9.870;2022-11-30T04:00:50;5.10;;;4.70;;
65463;SDS011;52063;45.110;9.870;2022-11-30T04:03:36;5.17;;;4.70;;
65463;SDS011;52063;45.110;9.870;2022-11-30T04:06:02;5.15;;;4.65;;
65463;SDS011;52063;45.110;9.870;2022-11-30T04:08:28;4.97;;;4.47;;
65463;SDS011;52063;45.110;9.870;2022-11-30T04:10:55;5.90;;;4.85;;
65463;SDS011;52063;45.110;9.870;2022-11-30T04:13:22;4.73;;;4.33;;
65463;SDS011;52063;45.110;9.870;2022-11-30T04:15:50;4.85;;;4.45;;
65463;SDS011;52063;45.110;9.870;2022-11-30T04:18:17;10.52;;;4.35;;
65463;SDS011;52063;45.110;9.870;2022-11-30T04:20:44;4.80;;;4.40;;
65463;SDS011;52063;45.110;9.870;2022-11-30T04:23:10;5.17;;;4.67;;
65463;SDS011;52063;45.110;9.870;2022-11-30T04:25:39;7.07;;;4.80;;
65463;SDS011;52063;45.110;9.870;2022-11-30T04:28:06;4.47;;;4.07;;
65463;SDS011;52063;45.110;9.870;2022-11-30T04:30:32;5.57;;;4.30;;
65463;SDS011;52063;45.110;9.870;2022-11-30T04:32:58;5.03;;;4.37;;
65463;SDS011;52063;45.110;9.870;2022-11-30T04:35:23;4.82;;;4.43;;
65463;SDS011;52063;45.110;9.870;2022-11-30T04:37:49;4.30;;;4.00;;
65463;SDS011;52063;45.110;9.870;2022-11-30T04:40:14;4.43;;;4.03;;
65463;SDS011;52063;45.110;9.870;2022-11-30T04:42:40;4.88;;;4.47;;
65463;SDS011;52063;45.110;9.870;2022-11-30T04:45:06;4.80;;;4.40;;
65463;SDS011;52063;45.110;9.870;2022-11-30T04:47:32;4.65;;;4.05;;
65463;SDS011;52063;45.110;9.870;2022-11-30T04:49:58;4.40;;;4.00;;
65463;SDS011;52063;45.110;9.870;2022-11-30T04:52:23;4.47;;;4.07;;
65463;SDS011;52063;45.110;9.870;2022-11-30T04:54:49;5.73;;;4.47;;
65463;SDS011;52063;45.110;9.870;2022-11-30T04:57:15;4.50;;;4.10;;
65463;SDS011;52063;45.110;9.870;2022-11-30T04:59:41;4.80;;;4.40;;
65463;SDS011;52063;45.110;9.870;2022-11-30T05:02:06;4.20;;;3.80;;
65463;SDS011;52063;45.110;9.870;2022-11-30T05:04:31;5.10;;;3.77;;
65463;SDS011;52063;45.110;9.870;2022-11-30T05:06:57;4.43;;;4.03;;
65463;SDS011;52063;45.110;9.870;2022-11-30T05:09:22;4.97;;;4.10;;
65463;SDS011;52063;45.110;9.870;2022-11-30T05:11:48;4.57;;;4.17;;
65463;SDS011;52063;45.110;9.870;2022-11-30T05:14:13;4.70;;;4.30;;
65463;SDS011;52063;45.110;9.870;2022-11-30T05:16:39;4.43;;;4.03;;
65463;SDS011;52063;45.110;9.870;2022-11-30T05:19:04;4.40;;;4.00;;
65463;SDS011;52063;45.110;9.870;2022-11-30T05:21:30;6.13;;;4.03;;
65463;SDS011;52063;45.110;9.870;2022-11-30T05:23:55;4.50;;;4.10;;
65463;SDS011;52063;45.110;9.870;2022-11-30T05:26:21;4.27;;;3.87;;
65463;SDS011;52063;45.110;9.870;2022-11-30T05:28:46;5.07;;;4.13;;
65463;SDS011;52063;45.110;9.870;2022-11-30T05:31:12;4.18;;;3.78;;
65463;SDS011;52063;45.110;9.870;2022-11-30T05:33:37;4.33;;;3.93;;
65463;SDS011;52063;45.110;9.870;2022-11-30T05:36:03;4.30;;;3.90;;
65463;SDS011;52063;45.110;9.870;2022-11-30T05:38:28;4.72;;;3.67;;
65463;SDS011;52063;45.110;9.870;2022-11-30T05:41:00;4.63;;;3.97;;
65463;SDS011;52063;45.110;9.870;2022-11-30T05:43:26;4.50;;;4.10;;
65463;SDS011;52063;45.110;9.870;2022-11-30T05:45:57;4.30;;;3.80;;
65463;SDS011;52063;45.110;9.870;2022-11-30T05:48:23;7.63;;;4.00;;
65463;SDS011;52063;45.110;9.870;2022-11-30T05:50:49;4.10;;;3.70;;
65463;SDS011;52063;45.110;9.870;2022-11-30T05:53:14;4.30;;;3.90;;
65463;SDS011;52063;45.110;9.870;2022-11-30T05:55:40;4.20;;;3.80;;
65463;SDS011;52063;45.110;9.870;2022-11-30T05:58:06;4.10;;;3.70;;
65463;SDS011;52063;45.110;9.870;2022-11-30T06:00:32;4.27;;;3.87;;
65463;SDS011;52063;45.110;9.870;2022-11-30T06:02:57;3.67;;;3.38;;
65463;SDS011;52063;45.110;9.870;2022-11-30T06:05:23;4.00;;;3.60;;
65463;SDS011;52063;45.110;9.870;2022-11-30T06:07:50;4.35;;;3.65;;
65463;SDS011;52063;45.110;9.870;2022-11-30T06:10:15;4.80;;;3.83;;
65463;SDS011;52063;45.110;9.870;2022-11-30T06:12:41;4.10;;;3.72;;
65463;SDS011;52063;45.110;9.870;2022-11-30T06:15:06;3.93;;;3.63;;
65463;SDS011;52063;45.110;9.870;2022-11-30T06:17:32;4.78;;;4.18;;
65463;SDS011;52063;45.110;9.870;2022-11-30T06:19:58;4.07;;;3.70;;
65463;SDS011;52063;45.110;9.870;2022-11-30T06:22:24;4.73;;;3.70;;
65463;SDS011;52063;45.110;9.870;2022-11-30T06:24:49;4.30;;;3.58;;
65463;SDS011;52063;45.110;9.870;2022-11-30T06:27:15;4.33;;;3.90;;
65463;SDS011;52063;45.110;9.870;2022-11-30T06:29:40;4.07;;;3.60;;
65463;SDS011;52063;45.110;9.870;2022-11-30T06:32:06;3.97;;;3.57;;
65463;SDS011;52063;45.110;9.870;2022-11-30T06:34:32;4.25;;;3.50;;
65463;SDS011;52063;45.110;9.870;2022-11-30T06:36:57;4.37;;;3.97;;
65463;SDS011;52063;45.110;9.870;2022-11-30T06:39:23;5.63;;;3.50;;
65463;SDS011;52063;45.110;9.870;2022-11-30T06:41:48;4.07;;;3.47;;
65463;SDS011;52063;45.110;9.870;2022-11-30T06:44:14;4.17;;;3.60;;
65463;SDS011;52063;45.110;9.870;2022-11-30T06:46:39;5.23;;;3.23;;
65463;SDS011;52063;45.110;9.870;2022-11-30T06:49:05;3.87;;;3.50;;
65463;SDS011;52063;45.110;9.870;2022-11-30T06:51:32;5.93;;;3.88;;
65463;SDS011;52063;45.110;9.870;2022-11-30T06:53:57;3.73;;;3.40;;
65463;SDS011;52063;45.110;9.870;2022-11-30T06:56:23;3.55;;;3.25;;
65463;SDS011;52063;45.110;9.870;2022-11-30T06:58:48;3.33;;;3.03;;
65463;SDS011;52063;45.110;9.870;2022-11-30T07:01:14;3.40;;;3.13;;
65463;SDS011;52063;45.110;9.870;2022-11-30T07:03:40;4.10;;;3.35;;
65463;SDS011;52063;45.110;9.870;2022-11-30T07:06:12;4.00;;;3.60;;
65463;SDS011;52063;45.110;9.870;2022-11-30T07:08:38;3.60;;;3.20;;
65463;SDS011;52063;45.110;9.870;2022-11-30T07:11:04;3.40;;;3.10;;
65463;SDS011;52063;45.110;9.870;2022-11-30T07:13:31;3.65;;;2.80;;
65463;SDS011;52063;45.110;9.870;2022-11-30T07:15:56;4.00;;;3.00;;
65463;SDS011;52063;45.110;9.870;2022-11-30T07:18:22;3.57;;;3.27;;
65463;SDS011;52063;45.110;9.870;2022-11-30T07:20:48;6.30;;;3.27;;
65463;SDS011;52063;45.110;9.870;2022-11-30T07:23:13;3.38;;;3.08;;
65463;SDS011;52063;45.110;9.870;2022-11-30T07:25:58;3.25;;;3.00;;
65463;SDS011;52063;45.110;9.870;2022-11-30T07:28:31;3.57;;;3.27;;
65463;SDS011;52063;45.110;9.870;2022-11-30T07:31:22;4.20;;;3.08;;
65463;SDS011;52063;45.110;9.870;2022-11-30T07:33:48;4.18;;;3.00;;
65463;SDS011;52063;45.110;9.870;2022-11-30T07:36:15;6.45;;;3.33;;
65463;SDS011;52063;45.110;9.870;2022-11-30T07:38:41;3.90;;;3.50;;
65463;SDS011;52063;45.110;9.870;2022-11-30T07:41:07;5.23;;;3.37;;
65463;SDS011;52063;45.110;9.870;2022-11-30T07:43:33;3.80;;;3.50;;
65463;SDS011;52063;45.110;9.870;2022-11-30T07:45:59;3.50;;;3.20;;
65463;SDS011;52063;45.110;9.870;2022-11-30T07:48:24;3.63;;;3.33;;
65463;SDS011;52063;45.110;9.870;2022-11-30T07:50:50;4.45;;;3.33;;
65463;SDS011;52063;45.110;9.870;2022-11-30T07:53:15;5.90;;;3.30;;
65463;SDS011;52063;45.110;9.870;2022-11-30T07:55:41;3.60;;;3.30;;
65463;SDS011;52063;45.110;9.870;2022-11-30T07:58:07;3.50;;;3.20;;
65463;SDS011;52063;45.110;9.870;2022-11-30T08:00:34;3.57;;;3.27;;
65463;SDS011;52063;45.110;9.870;2022-11-30T08:03:00;4.82;;;3.28;;
65463;SDS011;52063;45.110;9.870;2022-11-30T08:05:26;7.68;;;3.95;;
65463;SDS011;52063;45.110;9.870;2022-11-30T08:07:52;4.57;;;3.33;;
65463;SDS011;52063;45.110;9.870;2022-11-30T08:10:20;3.63;;;3.33;;
65463;SDS011;52063;45.110;9.870;2022-11-30T08:12:47;4.38;;;3.45;;
65463;SDS011;52063;45.110;9.870;2022-11-30T08:15:13;4.03;;;3.50;;
65463;SDS011;52063;45.110;9.870;2022-11-30T08:17:39;4.45;;;3.38;;
65463;SDS011;52063;45.110;9.870;2022-11-30T08:20:06;5.72;;;3.42;;
65463;SDS011;52063;45.110;9.870;2022-11-30T08:22:33;4.00;;;3.60;;
65463;SDS011;52063;45.110;9.870;2022-11-30T08:24:59;4.97;;;3.58;;
65463;SDS011;52063;45.110;9.870;2022-11-30T08:27:24;4.70;;;3.60;;
65463;SDS011;52063;45.110;9.870;2022-11-30T08:29:50;3.63;;;3.33;;
65463;SDS011;52063;45.110;9.870;2022-11-30T08:32:15;4.43;;;3.90;;
65463;SDS011;52063;45.110;9.870;2022-11-30T08:34:41;4.67;;;3.33;;
65463;SDS011;52063;45.110;9.870;2022-11-30T08:37:06;3.67;;;3.38;;
65463;SDS011;52063;45.110;9.870;2022-11-30T08:39:32;3.90;;;3.50;;
65463;SDS011;52063;45.110;9.870;2022-11-30T08:41:59;4.63;;;3.60;;
65463;SDS011;52063;45.110;9.870;2022-11-30T08:44:27;4.35;;;3.20;;
65463;SDS011;52063;45.110;9.870;2022-11-30T08:46:53;5.63;;;3.90;;
65463;SDS011;52063;45.110;9.870;2022-11-30T08:49:19;6.13;;;3.80;;
65463;SDS011;52063;45.110;9.870;2022-11-30T08:51:46;4.95;;;3.65;;
65463;SDS011;52063;45.110;9.870;2022-11-30T08:54:12;4.00;;;3.63;;
65463;SDS011;52063;45.110;9.870;2022-11-30T08:56:37;4.73;;;3.30;;
65463;SDS011;52063;45.110;9.870;2022-11-30T08:59:03;4.10;;;3.70;;
65463;SDS011;52063;45.110;9.870;2022-11-30T09:01:28;4.85;;;3.85;;
65463;SDS011;52063;45.110;9.870;2022-11-30T09:03:54;3.97;;;3.63;;
65463;SDS011;52063;45.110;9.870;2022-11-30T09:06:27;6.53;;;5.05;;
65463;SDS011;52063;45.110;9.870;2022-11-30T09:08:54;6.47;;;5.45;;
65463;SDS011;52063;45.110;9.870;2022-11-30T09:11:23;8.33;;;6.70;;
65463;SDS011;52063;45.110;9.870;2022-11-30T09:13:51;7.93;;;6.90;;
65463;SDS011;52063;45.110;9.870;2022-11-30T09:16:18;9.32;;;7.97;;
65463;SDS011;52063;45.110;9.870;2022-11-30T09:18:45;8.85;;;7.95;;
65463;SDS011;52063;45.110;9.870;2022-11-30T09:21:13;13.27;;;9.27;;
65463;SDS011;52063;45.110;9.870;2022-11-30T09:23:41;12.93;;;10.13;;
65463;SDS011;52063;45.110;9.870;2022-11-30T09:26:08;15.07;;;11.15;;
65463;SDS011;52063;45.110;9.870;2022-11-30T09:28:35;12.15;;;10.85;;
65463;SDS011;52063;45.110;9.870;2022-11-30T09:33:28;16.60;;;13.32;;
65463;SDS011;52063;45.110;9.870;2022-11-30T09:35:57;15.45;;;12.65;;
65463;SDS011;52063;45.110;9.870;2022-11-30T09:38:24;18.77;;;14.85;;
65463;SDS011;52063;45.110;9.870;2022-11-30T09:40:53;15.57;;;13.57;;
65463;SDS011;52063;45.110;9.870;2022-11-30T09:45:50;19.77;;;15.03;;
65463;SDS011;52063;45.110;9.870;2022-11-30T09:51:19;21.05;;;16.70;;
65463;SDS011;52063;45.110;9.870;2022-11-30T09:53:54;22.70;;;16.25;;
65463;SDS011;52063;45.110;9.870;2022-11-30T09:58:59;21.70;;;18.33;;
65463;SDS011;52063;45.110;9.870;2022-11-30T10:01:26;22.23;;;17.70;;
65463;SDS011;52063;45.110;9.870;2022-11-30T10:03:52;24.38;;;19.52;;
65463;SDS011;52063;45.110;9.870;2022-11-30T10:12:12;22.30;;;19.05;;
65463;SDS011;52063;45.110;9.870;2022-11-30T10:20:01;23.60;;;18.30;;
65463;SDS011;52063;45.110;9.870;2022-11-30T10:27:50;21.95;;;16.98;;
65463;SDS011;52063;45.110;9.870;2022-11-30T10:30:18;22.43;;;18.17;;
65463;SDS011;52063;45.110;9.870;2022-11-30T10:32:48;24.65;;;17.80;;
65463;SDS011;52063;45.110;9.870;2022-11-30T10:37:54;22.88;;;17.58;;
65463;SDS011;52063;45.110;9.870;2022-11-30T10:43:03;21.03;;;17.50;;
65463;SDS011;52063;45.110;9.870;2022-11-30T10:45:49;22.73;;;16.90;;
65463;SDS011;52063;45.110;9.870;2022-11-30T10:51:02;19.13;;;15.43;;
65463;SDS011;52063;45.110;9.870;2022-11-30T10:53:28;23.73;;;16.50;;
65463;SDS011;52063;45.110;9.870;2022-11-30T10:56:05;19.55;;;15.25;;
65463;SDS011;52063;45.110;9.870;2022-11-30T10:58:38;20.67;;;15.52;;
65463;SDS011;52063;45.110;9.870;2022-11-30T11:01:09;21.20;;;16.05;;
65463;SDS011;52063;45.110;9.870;2022-11-30T11:03:57;19.85;;;15.32;;
65463;SDS011;52063;45.110;9.870;2022-11-30T11:06:30;20.10;;;15.30;;
65463;SDS011;52063;45.110;9.870;2022-11-30T11:08:57;19.98;;;15.55;;
65463;SDS011;52063;45.110;9.870;2022-11-30T11:14:13;20.10;;;15.17;;
65463;SDS011;52063;45.110;9.870;2022-11-30T11:16:52;19.60;;;15.65;;
65463;SDS011;52063;45.110;9.870;2022-11-30T11:19:22;22.00;;;14.25;;
65463;SDS011;52063;45.110;9.870;2022-11-30T11:21:47;18.13;;;13.95;;
65463;SDS011;52063;45.110;9.870;2022-11-30T11:24:14;19.05;;;15.02;;
65463;SDS011;52063;45.110;9.870;2022-11-30T11:26:50;19.13;;;14.60;;
65463;SDS011;52063;45.110;9.870;2022-11-30T11:29:23;18.58;;;13.82;;
65463;SDS011;52063;45.110;9.870;2022-11-30T11:32:05;20.35;;;13.85;;
65463;SDS011;52063;45.110;9.870;2022-11-30T11:34:34;18.98;;;14.43;;
65463;SDS011;52063;45.110;9.870;2022-11-30T11:39:41;18.90;;;14.77;;
65463;SDS011;52063;45.110;9.870;2022-11-30T11:42:14;16.13;;;13.55;;
65463;SDS011;52063;45.110;9.870;2022-11-30T11:44:41;19.03;;;14.07;;
65463;SDS011;52063;45.110;9.870;2022-11-30T11:47:16;16.33;;;13.73;;
65463;SDS011;52063;45.110;9.870;2022-11-30T11:49:47;20.13;;;13.32;;
65463;SDS011;52063;45.110;9.870;2022-11-30T11:52:16;17.63;;;13.03;;
65463;SDS011;52063;45.110;9.870;2022-11-30T11:55:01;16.80;;;13.45;;
65463;SDS011;52063;45.110;9.870;2022-11-30T11:57:33;19.35;;;13.60;;
65463;SDS011;52063;45.110;9.870;2022-11-30T12:05:27;15.70;;;12.53;;
65463;SDS011;52063;45.110;9.870;2022-11-30T12:08:03;16.48;;;12.13;;
65463;SDS011;52063;45.110;9.870;2022-11-30T12:13:21;14.68;;;11.77;;
65463;SDS011;52063;45.110;9.870;2022-11-30T12:19:06;15.53;;;12.13;;
65463;SDS011;52063;45.110;9.870;2022-11-30T12:25:12;14.75;;;11.43;;
65463;SDS011;52063;45.110;9.870;2022-11-30T12:30:00;16.92;;;12.25;;
65463;SDS011;52063;45.110;9.870;2022-11-30T12:51:36;14.00;;;11.20;;
65463;SDS011;52063;45.110;9.870;2022-11-30T12:56:53;12.50;;;10.13;;
65463;SDS011;52063;45.110;9.870;2022-11-30T12:59:39;13.63;;;11.03;;
65463;SDS011;52063;45.110;9.870;2022-11-30T13:02:15;13.75;;;9.40;;
65463;SDS011;52063;45.110;9.870;2022-11-30T13:04:49;11.65;;;9.40;;
65463;SDS011;52063;45.110;9.870;2022-11-30T13:07:26;13.10;;;9.10;;
65463;SDS011;52063;45.110;9.870;2022-11-30T13:10:16;14.60;;;9.13;;
65463;SDS011;52063;45.110;9.870;2022-11-30T13:12:49;13.23;;;9.73;;
65463;SDS011;52063;45.110;9.870;2022-11-30T13:15:19;13.68;;;10.13;;
65463;SDS011;52063;45.110;9.870;2022-11-30T13:17:46;11.63;;;9.18;;
65463;SDS011;52063;45.110;9.870;2022-11-30T13:25:54;11.43;;;9.10;;
65463;SDS011;52063;45.110;9.870;2022-11-30T13:31:28;10.25;;;8.50;;
65463;SDS011;52063;45.110;9.870;2022-11-30T13:33:58;11.05;;;8.48;;
65463;SDS011;52063;45.110;9.870;2022-11-30T13:36:32;9.65;;;8.27;;
65463;SDS011;52063;45.110;9.870;2022-11-30T13:41:41;10.38;;;8.45;;
65463;SDS011;52063;45.110;9.870;2022-11-30T13:47:05;11.32;;;8.27;;
65463;SDS011;52063;45.110;9.870;2022-11-30T13:50:09;10.82;;;8.38;;
65463;SDS011;52063;45.110;9.870;2022-11-30T13:58:15;10.25;;;7.60;;
65463;SDS011;52063;45.110;9.870;2022-11-30T14:00:42;10.82;;;7.80;;
65463;SDS011;52063;45.110;9.870;2022-11-30T14:10:41;9.20;;;7.73;;
65463;SDS011;52063;45.110;9.870;2022-11-30T14:20:35;8.93;;;7.53;;
65463;SDS011;52063;45.110;9.870;2022-11-30T14:23:20;7.83;;;6.83;;
65463;SDS011;52063;45.110;9.870;2022-11-30T14:25:49;8.95;;;7.10;;
65463;SDS011;52063;45.110;9.870;2022-11-30T14:28:20;8.52;;;7.25;;
65463;SDS011;52063;45.110;9.870;2022-11-30T14:30:48;9.00;;;6.78;;
65463;SDS011;52063;45.110;9.870;2022-11-30T14:33:17;8.60;;;6.93;;
65463;SDS011;52063;45.110;9.870;2022-11-30T14:35:45;8.17;;;7.10;;
65463;SDS011;52063;45.110;9.870;2022-11-30T14:38:14;7.53;;;6.82;;
65463;SDS011;52063;45.110;9.870;2022-11-30T14:40:50;9.57;;;7.65;;
65463;SDS011;52063;45.110;9.870;2022-11-30T14:43:16;7.65;;;6.78;;
65463;SDS011;52063;45.110;9.870;2022-11-30T14:45:42;8.40;;;7.13;;
65463;SDS011;52063;45.110;9.870;2022-11-30T14:48:14;9.15;;;6.95;;
65463;SDS011;52063;45.110;9.870;2022-11-30T14:50:45;10.05;;;7.15;;
65463;SDS011;52063;45.110;9.870;2022-11-30T14:59:00;7.80;;;6.50;;
65463;SDS011;52063;45.110;9.870;2022-11-30T15:01:32;7.38;;;6.25;;
65463;SDS011;52063;45.110;9.870;2022-11-30T15:04:19;7.07;;;6.37;;
65463;SDS011;52063;45.110;9.870;2022-11-30T15:06:43;9.57;;;6.90;;
65463;SDS011;52063;45.110;9.870;2022-11-30T15:09:12;6.67;;;6.00;;
65463;SDS011;52063;45.110;9.870;2022-11-30T15:11:41;6.63;;;5.97;;
65463;SDS011;52063;45.110;9.870;2022-11-30T15:14:08;7.97;;;6.38;;
65463;SDS011;52063;45.110;9.870;2022-11-30T15:16:34;7.93;;;6.22;;
65463;SDS011;52063;45.110;9.870;2022-11-30T15:19:13;6.67;;;5.50;;
65463;SDS011;52063;45.110;9.870;2022-11-30T15:21:44;7.43;;;6.10;;
65463;SDS011;52063;45.110;9.870;2022-11-30T15:24:10;7.13;;;5.97;;
65463;SDS011;52063;45.110;9.870;2022-11-30T15:26:36;6.60;;;5.90;;
65463;SDS011;52063;45.110;9.870;2022-11-30T15:29:11;6.30;;;5.60;;
65463;SDS011;52063;45.110;9.870;2022-11-30T15:31:45;6.60;;;5.60;;
65463;SDS011;52063;45.110;9.870;2022-11-30T15:34:17;6.28;;;5.68;;
65463;SDS011;52063;45.110;9.870;2022-11-30T15:36:45;6.27;;;5.60;;
65463;SDS011;52063;45.110;9.870;2022-11-30T15:39:18;7.15;;;5.95;;
65463;SDS011;52063;45.110;9.870;2022-11-30T15:41:45;7.65;;;6.00;;
65463;SDS011;52063;45.110;9.870;2022-11-30T15:44:21;6.60;;;5.90;;
65463;SDS011;52063;45.110;9.870;2022-11-30T15:46:54;6.32;;;5.47;;
65463;SDS011;52063;45.110;9.870;2022-11-30T15:49:23;6.40;;;5.75;;
65463;SDS011;52063;45.110;9.870;2022-11-30T15:54:50;6.28;;;5.55;;
65463;SDS011;52063;45.110;9.870;2022-11-30T16:00:21;7.03;;;5.47;;
65463;SDS011;52063;45.110;9.870;2022-11-30T16:02:47;6.88;;;5.78;;
65463;SDS011;52063;45.110;9.870;2022-11-30T16:10:15;9.10;;;5.57;;
65463;SDS011;52063;45.110;9.870;2022-11-30T16:12:44;5.78;;;5.10;;
65463;SDS011;52063;45.110;9.870;2022-11-30T16:15:20;6.60;;;5.40;;
65463;SDS011;52063;45.110;9.870;2022-11-30T16:17:53;6.68;;;5.07;;
65463;SDS011;52063;45.110;9.870;2022-11-30T16:20:21;5.95;;;5.43;;
65463;SDS011;52063;45.110;9.870;2022-11-30T16:22:47;5.40;;;4.90;;
65463;SDS011;52063;45.110;9.870;2022-11-30T16:25:14;5.72;;;4.95;;
65463;SDS011;52063;45.110;9.870;2022-11-30T16:27:40;6.00;;;5.40;;
65463;SDS011;52063;45.110;9.870;2022-11-30T16:30:07;5.93;;;4.80;;
65463;SDS011;52063;45.110;9.870;2022-11-30T16:32:33;5.83;;;5.23;;
65463;SDS011;52063;45.110;9.870;2022-11-30T16:34:59;6.35;;;5.43;;
65463;SDS011;52063;45.110;9.870;2022-11-30T16:37:25;6.17;;;5.13;;
65463;SDS011;52063;45.110;9.870;2022-11-30T16:39:51;6.35;;;5.75;;
65463;SDS011;52063;45.110;9.870;2022-11-30T16:42:16;7.27;;;5.60;;
65463;SDS011;52063;45.110;9.870;2022-11-30T16:44:42;5.97;;;5.40;;
65463;SDS011;52063;45.110;9.870;2022-11-30T16:47:07;5.60;;;5.10;;
65463;SDS011;52063;45.110;9.870;2022-11-30T16:49:33;6.40;;;5.47;;
65463;SDS011;52063;45.110;9.870;2022-11-30T16:51:58;6.77;;;5.30;;
65463;SDS011;52063;45.110;9.870;2022-11-30T16:54:24;6.05;;;5.45;;
65463;SDS011;52063;45.110;9.870;2022-11-30T16:56:49;5.50;;;4.83;;
65463;SDS011;52063;45.110;9.870;2022-11-30T16:59:14;7.07;;;5.07;;
65463;SDS011;52063;45.110;9.870;2022-11-30T17:01:41;5.90;;;5.30;;
65463;SDS011;52063;45.110;9.870;2022-11-30T17:04:11;6.50;;;5.18;;
65463;SDS011;52063;45.110;9.870;2022-11-30T17:06:39;6.20;;;5.60;;
65463;SDS011;52063;45.110;9.870;2022-11-30T17:09:04;6.33;;;5.00;;
65463;SDS011;52063;45.110;9.870;2022-11-30T17:11:31;5.90;;;5.40;;